createdAt,value
2018-07-11T00:01:38.997Z,98.30
2018-07-11T00:04:07.421Z,98.70
2018-07-11T00:06:35.941Z,99.00
2018-07-11T00:09:04.621Z,99.10
2018-07-11T00:11:33.062Z,98.80
2018-07-11T00:14:01.456Z,98.70
2018-07-11T00:16:29.884Z,99.00
2018-07-11T00:18:58.318Z,99.00
2018-07-11T00:21:26.728Z,98.80
2018-07-11T00:23:55.130Z,99.10
2018-07-11T00:26:24.028Z,98.90
2018-07-11T00:28:52.423Z,99.10
2018-07-11T00:31:21.061Z,99.20
2018-07-11T00:33:49.724Z,99.20
2018-07-11T00:36:18.324Z,99.50
2018-07-11T00:38:47.474Z,99.50
2018-07-11T00:41:15.970Z,99.30
2018-07-11T00:43:44.498Z,99.20
2018-07-11T00:46:14.150Z,99.40
2018-07-11T00:48:42.758Z,99.50
2018-07-11T00:51:11.294Z,99.60
2018-07-11T00:53:39.737Z,99.50
2018-07-11T00:56:08.173Z,99.40
2018-07-11T00:58:38.890Z,99.40
2018-07-11T01:01:10.110Z,99.30
2018-07-11T01:03:53.998Z,99.20
2018-07-11T01:06:23.289Z,99.30
2018-07-11T01:08:53.087Z,99.30
2018-07-11T01:11:22.632Z,99.50
2018-07-11T01:13:51.264Z,99.60
2018-07-11T01:16:20.807Z,99.40
2018-07-11T01:18:55.974Z,99.50
2018-07-11T01:21:24.393Z,99.50
2018-07-11T01:23:52.820Z,99.60
2018-07-11T01:26:26.952Z,99.70
2018-07-11T01:28:55.356Z,99.70
2018-07-11T01:31:24.312Z,99.70
2018-07-11T01:33:52.974Z,99.70
2018-07-11T01:36:21.404Z,99.70
2018-07-11T01:38:49.852Z,99.60
2018-07-11T01:41:18.313Z,99.80
2018-07-11T01:43:46.816Z,99.80
2018-07-11T01:46:15.687Z,99.90
2018-07-11T01:48:44.805Z,99.50
2018-07-11T01:51:13.252Z,99.90
2018-07-11T01:53:41.673Z,99.90
2018-07-11T01:56:10.157Z,99.90
2018-07-11T01:58:38.777Z,99.90
2018-07-11T02:01:07.520Z,99.90
2018-07-11T02:03:36.189Z,99.90
2018-07-11T02:06:04.621Z,99.90
2018-07-11T02:08:33.118Z,99.90
2018-07-11T02:11:01.612Z,99.90
2018-07-11T02:13:30.058Z,99.90
2018-07-11T02:15:58.570Z,99.90
2018-07-11T02:18:29.447Z,99.90
2018-07-11T02:20:58.294Z,99.90
2018-07-11T02:23:37.913Z,99.90
2018-07-11T02:26:06.405Z,99.90
2018-07-11T02:28:35.501Z,99.90
2018-07-11T02:31:04.581Z,99.90
2018-07-11T02:33:33.735Z,99.90
2018-07-11T02:36:02.173Z,99.90
2018-07-11T02:38:30.610Z,99.90
2018-07-11T02:40:59.015Z,99.90
2018-07-11T02:43:27.609Z,99.90
2018-07-11T02:45:56.779Z,99.90
2018-07-11T02:48:25.261Z,99.90
2018-07-11T02:50:53.758Z,99.90
2018-07-11T02:53:23.641Z,99.90
2018-07-11T02:55:52.695Z,99.90
2018-07-11T02:58:21.674Z,99.90
2018-07-11T03:00:50.841Z,99.90
2018-07-11T03:03:19.337Z,99.90
2018-07-11T03:05:47.846Z,99.90
2018-07-11T03:08:17.392Z,99.90
2018-07-11T03:10:46.405Z,99.90
2018-07-11T03:13:16.093Z,99.90
2018-07-11T03:15:45.258Z,99.90
2018-07-11T03:18:13.785Z,99.90
2018-07-11T03:20:42.263Z,99.90
2018-07-11T03:23:10.756Z,99.90
2018-07-11T03:25:39.740Z,99.90
2018-07-11T03:28:08.152Z,99.90
2018-07-11T03:30:36.935Z,99.90
2018-07-11T03:33:05.337Z,99.90
2018-07-11T03:35:33.821Z,99.90
2018-07-11T03:38:02.295Z,99.90
2018-07-11T03:42:58.904Z,99.90
2018-07-11T03:45:27.540Z,99.90
2018-07-11T03:47:56.017Z,99.90
2018-07-11T03:50:24.533Z,99.90
2018-07-11T03:52:53.962Z,99.90
2018-07-11T03:55:26.616Z,99.90
2018-07-11T03:57:55.149Z,99.90
2018-07-11T04:00:25.530Z,99.90
2018-07-11T04:02:54.664Z,99.90
2018-07-11T04:05:23.220Z,99.90
2018-07-11T04:07:51.667Z,99.90
2018-07-11T04:10:20.206Z,99.90
2018-07-11T04:12:54.902Z,99.90
2018-07-11T04:15:23.476Z,99.90
2018-07-11T04:17:52.365Z,99.90
2018-07-11T04:20:20.967Z,99.90
2018-07-11T04:22:49.479Z,99.90
2018-07-11T04:25:18.769Z,99.90
2018-07-11T04:27:47.284Z,99.90
2018-07-11T04:30:16.409Z,99.90
2018-07-11T04:32:44.853Z,99.90
2018-07-11T04:35:13.989Z,99.90
2018-07-11T04:37:42.512Z,99.90
2018-07-11T04:40:10.956Z,99.90
2018-07-11T04:42:39.677Z,99.90
2018-07-11T04:45:08.215Z,99.90
2018-07-11T04:47:36.664Z,99.90
2018-07-11T04:50:05.198Z,99.90
2018-07-11T04:52:33.713Z,99.90
2018-07-11T04:55:02.247Z,99.90
2018-07-11T04:57:30.686Z,99.90
2018-07-11T04:59:59.113Z,99.90
2018-07-11T05:02:27.535Z,99.90
2018-07-11T05:04:56.016Z,99.90
2018-07-11T05:07:25.013Z,99.90
2018-07-11T05:09:53.430Z,99.90
2018-07-11T05:12:21.892Z,99.90
2018-07-11T05:14:50.339Z,99.90
2018-07-11T05:17:18.959Z,99.90
2018-07-11T05:19:47.357Z,99.90
2018-07-11T05:22:15.791Z,99.90
2018-07-11T05:24:44.220Z,99.90
2018-07-11T05:27:12.761Z,99.90
2018-07-11T05:32:09.523Z,99.90
2018-07-11T05:34:37.946Z,99.90
2018-07-11T05:37:06.436Z,99.90
2018-07-11T05:39:34.906Z,99.90
2018-07-11T05:42:03.440Z,99.90
2018-07-11T05:44:31.913Z,99.90
2018-07-11T05:47:05.196Z,99.90
2018-07-11T05:49:34.049Z,99.90
2018-07-11T05:52:03.431Z,99.90
2018-07-11T05:54:32.850Z,99.90
2018-07-11T05:57:01.762Z,99.90
2018-07-11T05:59:30.233Z,99.90
2018-07-11T06:01:58.965Z,99.90
2018-07-11T06:04:27.425Z,99.90
2018-07-11T06:06:55.910Z,99.90
2018-07-11T06:09:24.931Z,99.90
2018-07-11T06:11:53.561Z,99.90
2018-07-11T06:14:21.953Z,99.90
2018-07-11T06:16:50.424Z,99.90
2018-07-11T06:19:18.801Z,99.90
2018-07-11T06:21:48.719Z,99.90
2018-07-11T06:24:17.164Z,99.90
2018-07-11T06:26:45.701Z,99.90
2018-07-11T06:29:14.197Z,99.90
2018-07-11T06:31:42.627Z,99.90
2018-07-11T06:34:11.075Z,99.90
2018-07-11T06:36:39.488Z,99.90
2018-07-11T06:39:08.409Z,99.90
2018-07-11T06:41:36.860Z,99.90
2018-07-11T06:44:05.312Z,99.90
2018-07-11T06:46:33.765Z,99.90
2018-07-11T06:49:02.187Z,99.90
2018-07-11T06:51:30.800Z,99.90
2018-07-11T06:53:59.223Z,99.90
2018-07-11T06:56:27.597Z,99.90
2018-07-11T06:58:55.993Z,99.90
2018-07-11T07:01:24.441Z,99.90
2018-07-11T07:03:53.103Z,99.90
2018-07-11T07:06:22.336Z,99.90
2018-07-11T07:08:50.772Z,99.90
2018-07-11T07:11:19.156Z,99.90
2018-07-11T07:13:47.638Z,98.80
2018-07-11T07:16:16.181Z,99.40
2018-07-11T07:18:44.581Z,99.70
2018-07-11T07:21:12.985Z,99.90
2018-07-11T07:23:41.585Z,99.90
2018-07-11T07:26:10.472Z,99.90
2018-07-11T07:28:39.807Z,99.90
2018-07-11T07:31:08.245Z,99.90
2018-07-11T07:33:36.622Z,99.90
2018-07-11T07:36:05.097Z,99.90
2018-07-11T07:38:39.654Z,99.90
2018-07-11T07:41:08.535Z,99.90
2018-07-11T07:43:37.598Z,99.90
2018-07-11T07:46:06.193Z,99.70
2018-07-11T07:48:35.281Z,99.70
2018-07-11T07:51:03.834Z,99.90
2018-07-11T07:53:32.497Z,99.90
2018-07-11T07:56:01.692Z,99.40
2018-07-11T07:58:30.237Z,99.10
2018-07-11T08:00:58.668Z,98.90
2018-07-11T08:03:27.618Z,98.70
2018-07-11T08:09:27.699Z,98.20
2018-07-11T08:11:56.080Z,97.80
2018-07-11T08:16:53.338Z,96.30
2018-07-11T08:19:22.652Z,95.70
2018-07-11T08:21:51.121Z,96.00
2018-07-11T08:24:30.916Z,96.30
2018-07-11T08:27:10.633Z,94.90
2018-07-11T08:33:32.809Z,95.30
2018-07-11T08:37:13.323Z,95.30
2018-07-11T08:42:28.136Z,96.60
2018-07-11T08:47:19.012Z,96.80
2018-07-11T08:50:37.588Z,97.60
2018-07-11T08:53:19.573Z,93.50
2018-07-11T08:56:05.104Z,92.50
2018-07-11T09:00:42.888Z,93.20
2018-07-11T09:10:09.290Z,92.70
2018-07-11T09:13:23.266Z,93.10
2018-07-11T09:16:32.092Z,94.20
2018-07-11T09:21:23.320Z,95.00
2018-07-11T09:24:02.180Z,93.80
2018-07-11T09:26:30.712Z,94.10
2018-07-11T09:28:59.256Z,93.10
2018-07-11T09:31:28.241Z,92.60
2018-07-11T09:33:57.074Z,91.40
2018-07-11T09:36:26.409Z,91.30
2018-07-11T09:38:54.954Z,90.80
2018-07-11T09:41:23.918Z,90.60
2018-07-11T09:46:20.851Z,92.20
2018-07-11T09:48:49.431Z,92.40
2018-07-11T09:51:17.986Z,91.30
2018-07-11T09:53:46.601Z,91.60
2018-07-11T09:56:16.209Z,90.20
2018-07-11T09:58:44.999Z,89.10
2018-07-11T10:01:18.897Z,89.60
2018-07-11T10:03:47.647Z,89.90
2018-07-11T10:08:45.428Z,85.70
2018-07-11T10:11:13.916Z,88.30
2018-07-11T10:13:42.408Z,91.10
2018-07-11T10:16:10.885Z,91.40
2018-07-11T10:18:40.073Z,91.80
2018-07-11T10:21:08.934Z,92.50
2018-07-11T10:23:37.567Z,92.40
2018-07-11T10:26:06.175Z,92.90
2018-07-11T10:28:34.703Z,92.00
2018-07-11T10:31:03.337Z,91.90
2018-07-11T10:33:32.075Z,90.30
2018-07-11T10:36:00.611Z,88.20
2018-07-11T10:38:30.049Z,88.10
2018-07-11T10:41:05.368Z,88.40
2018-07-11T10:43:34.061Z,88.70
2018-07-11T10:46:02.648Z,89.60
2018-07-11T10:48:31.060Z,89.70
2018-07-11T10:50:59.816Z,90.20
2018-07-11T10:53:28.337Z,90.20
2018-07-11T10:55:57.167Z,90.10
2018-07-11T10:58:25.742Z,89.30
2018-07-11T11:01:05.702Z,90.50
2018-07-11T11:03:28.183Z,90.30
2018-07-11T11:05:57.462Z,90.70
2018-07-11T11:08:26.922Z,90.40
2018-07-11T11:10:56.073Z,91.00
2018-07-11T11:13:25.436Z,91.20
2018-07-11T11:15:54.720Z,91.60
2018-07-11T11:18:23.967Z,91.90
2018-07-11T11:20:54.365Z,92.00
2018-07-11T11:23:23.383Z,91.40
2018-07-11T11:25:51.953Z,91.30
2018-07-11T11:28:20.429Z,91.20
2018-07-11T11:30:48.882Z,91.30
2018-07-11T11:33:17.327Z,91.30
2018-07-11T11:35:45.876Z,91.10
2018-07-11T11:38:14.221Z,90.80
2018-07-11T11:40:42.887Z,89.30
2018-07-11T11:43:11.349Z,88.40
2018-07-11T11:45:40.028Z,89.70
2018-07-11T11:48:15.228Z,89.60
2018-07-11T11:50:44.005Z,88.50
2018-07-11T11:53:12.638Z,87.20
2018-07-11T11:55:41.846Z,90.50
2018-07-11T12:00:39.339Z,88.20
2018-07-11T12:03:08.014Z,89.70
2018-07-11T12:05:44.934Z,90.10
2018-07-11T12:08:17.740Z,88.70
2018-07-11T12:10:46.582Z,88.80
2018-07-11T12:13:15.671Z,85.30
2018-07-11T12:15:44.127Z,89.10
2018-07-11T12:18:12.663Z,87.70
2018-07-11T12:20:41.110Z,87.00
2018-07-11T12:25:42.126Z,89.50
2018-07-11T12:28:12.862Z,90.70
2018-07-11T12:30:41.461Z,89.10
2018-07-11T12:33:09.944Z,89.10
2018-07-11T12:35:38.472Z,88.30
2018-07-11T12:38:06.909Z,86.70
2018-07-11T12:40:35.434Z,87.90
2018-07-11T12:43:03.865Z,84.00
2018-07-11T12:45:32.337Z,85.30
2018-07-11T12:48:06.135Z,83.50
2018-07-11T12:50:34.689Z,85.40
2018-07-11T12:53:03.205Z,86.20
2018-07-11T12:55:31.836Z,90.00
2018-07-11T12:58:00.365Z,89.90
2018-07-11T13:00:28.998Z,90.80
2018-07-11T13:05:26.234Z,91.90
2018-07-11T13:07:54.733Z,90.90
2018-07-11T13:12:51.361Z,91.00
2018-07-11T13:15:19.841Z,90.30
2018-07-11T13:17:48.348Z,90.50
2018-07-11T13:20:16.874Z,90.10
2018-07-11T13:22:45.812Z,90.10
2018-07-11T13:25:14.319Z,88.80
2018-07-11T13:27:42.982Z,90.00
2018-07-11T13:30:11.494Z,90.30
2018-07-11T13:32:40.113Z,90.60
2018-07-11T13:35:08.692Z,87.50
2018-07-11T13:37:37.188Z,88.50
2018-07-11T13:40:06.345Z,86.50
2018-07-11T13:42:36.200Z,86.60
2018-07-11T13:45:04.614Z,86.90
2018-07-11T13:47:33.145Z,86.70
2018-07-11T13:50:07.701Z,86.00
2018-07-11T13:52:38.075Z,85.70
2018-07-11T13:55:06.666Z,86.30
2018-07-11T13:57:35.119Z,86.00
2018-07-11T14:00:03.734Z,85.40
2018-07-11T14:02:32.205Z,84.70
2018-07-11T14:05:00.953Z,84.20
2018-07-11T14:07:29.541Z,84.60
2018-07-11T14:09:58.674Z,82.90
2018-07-11T14:12:27.197Z,84.50
2018-07-11T14:14:55.614Z,84.10
2018-07-11T14:17:24.426Z,84.30
2018-07-11T14:19:53.028Z,86.60
2018-07-11T14:22:32.183Z,85.80
2018-07-11T14:25:01.177Z,85.20
2018-07-11T14:27:29.787Z,86.50
2018-07-11T14:29:59.954Z,86.10
2018-07-11T14:32:28.637Z,88.60
2018-07-11T14:34:57.430Z,85.80
2018-07-11T14:37:26.165Z,85.10
2018-07-11T14:39:54.649Z,87.70
2018-07-11T14:42:23.087Z,85.00
2018-07-11T14:44:54.381Z,84.50
2018-07-11T14:47:28.371Z,83.60
2018-07-11T14:49:57.131Z,83.60
2018-07-11T14:52:26.296Z,85.90
2018-07-11T14:54:54.825Z,84.90
2018-07-11T14:57:23.438Z,82.30
2018-07-11T14:59:52.014Z,85.30
2018-07-11T15:02:20.893Z,82.90
2018-07-11T15:04:49.452Z,82.00
2018-07-11T15:07:18.049Z,81.80
2018-07-11T15:09:46.953Z,81.20
2018-07-11T15:12:15.713Z,79.80
2018-07-11T15:14:44.261Z,80.60
2018-07-11T15:17:12.781Z,82.00
2018-07-11T15:19:41.349Z,80.30
2018-07-11T15:22:10.251Z,79.70
2018-07-11T15:24:38.785Z,81.10
2018-07-11T15:27:07.202Z,81.70
2018-07-11T15:29:35.797Z,79.40
2018-07-11T15:32:04.393Z,78.80
2018-07-11T15:34:33.286Z,78.60
2018-07-11T15:37:01.802Z,78.40
2018-07-11T15:39:30.493Z,79.50
2018-07-11T15:44:27.645Z,80.80
2018-07-11T15:46:56.211Z,79.00
2018-07-11T15:49:25.539Z,80.70
2018-07-11T15:51:55.807Z,80.40
2018-07-11T15:54:24.545Z,79.40
2018-07-11T15:56:53.369Z,80.10
2018-07-11T15:59:26.123Z,80.10
2018-07-11T16:01:55.903Z,81.10
2018-07-11T16:04:33.869Z,81.90
2018-07-11T16:07:04.849Z,81.20
2018-07-11T16:10:08.553Z,80.80
2018-07-11T16:12:37.129Z,79.80
2018-07-11T16:15:05.713Z,80.40
2018-07-11T16:17:34.679Z,80.00
2018-07-11T16:20:03.433Z,80.00
2018-07-11T16:25:00.395Z,80.00
2018-07-11T16:29:57.791Z,78.40
2018-07-11T16:32:26.419Z,79.60
2018-07-11T16:34:54.985Z,80.30
2018-07-11T16:37:23.503Z,79.60
2018-07-11T16:39:52.458Z,79.00
2018-07-11T16:42:21.300Z,81.50
2018-07-11T16:44:51.251Z,80.40
2018-07-11T16:47:19.970Z,81.30
2018-07-11T16:49:49.467Z,79.70
2018-07-11T16:52:18.025Z,79.40
2018-07-11T16:54:46.542Z,78.50
2018-07-11T16:57:20.409Z,78.80
2018-07-11T16:59:57.197Z,80.10
2018-07-11T17:02:26.617Z,79.70
2018-07-11T17:04:58.806Z,80.80
2018-07-11T17:07:27.344Z,80.70
2018-07-11T17:09:57.012Z,81.80
2018-07-11T17:17:43.840Z,82.60
2018-07-11T17:20:23.034Z,83.50
2018-07-11T17:28:24.908Z,85.70
2018-07-11T17:30:54.179Z,86.50
2018-07-11T17:33:22.723Z,86.10
2018-07-11T17:35:53.182Z,87.60
2018-07-11T17:38:29.537Z,87.40
2018-07-11T17:41:01.158Z,88.30
2018-07-11T17:43:35.767Z,87.90
2018-07-11T17:46:05.042Z,88.30
2018-07-11T17:48:43.605Z,89.00
2018-07-11T17:51:36.568Z,88.30
2018-07-11T17:54:05.201Z,88.20
2018-07-11T17:56:43.361Z,89.20
2018-07-11T17:59:13.544Z,90.00
2018-07-11T18:01:43.696Z,89.80
2018-07-11T18:04:20.301Z,89.30
2018-07-11T18:06:59.922Z,89.30
2018-07-11T18:09:33.656Z,89.30
2018-07-11T18:15:45.849Z,89.60
2018-07-11T18:19:26.996Z,89.60
2018-07-11T18:22:04.449Z,90.00
2018-07-11T18:24:41.310Z,90.60
2018-07-11T18:27:20.370Z,90.60
2018-07-11T18:31:03.590Z,90.50
2018-07-11T18:33:39.036Z,90.50
2018-07-11T18:38:22.296Z,90.80
2018-07-11T18:41:15.407Z,90.90
2018-07-11T18:43:53.574Z,90.70
2018-07-11T18:47:03.520Z,91.20
2018-07-11T18:52:12.682Z,91.30
2018-07-11T18:55:02.369Z,91.40
2018-07-11T18:58:15.864Z,91.30
2018-07-11T19:00:59.887Z,91.60
2018-07-11T19:03:38.103Z,91.50
2018-07-11T19:06:30.506Z,91.50
2018-07-11T19:09:13.021Z,91.50
2018-07-11T19:11:52.873Z,91.60
2018-07-11T19:14:26.487Z,91.50
2018-07-11T19:17:04.645Z,91.50
2018-07-11T19:19:42.968Z,91.60
2018-07-11T19:23:28.313Z,91.60
2018-07-11T19:26:02.391Z,91.70
2018-07-11T19:28:45.486Z,91.80
2018-07-11T19:33:30.338Z,92.00
2018-07-11T19:36:10.262Z,92.00
2018-07-11T19:38:46.795Z,92.60
2018-07-11T19:41:20.312Z,92.60
2018-07-11T19:43:56.297Z,92.80
2018-07-11T19:46:36.615Z,93.20
2018-07-11T19:49:14.743Z,93.40
2018-07-11T19:51:57.595Z,92.90
2018-07-11T19:54:37.323Z,93.10
2018-07-11T19:57:05.899Z,93.00
2018-07-11T19:59:34.583Z,93.30
2018-07-11T20:02:04.034Z,93.50
2018-07-11T20:04:32.462Z,93.80
2018-07-11T20:07:01.191Z,93.70
2018-07-11T20:14:26.533Z,94.70
2018-07-11T20:16:55.042Z,94.80
2018-07-11T20:19:23.605Z,94.70
2018-07-11T20:21:52.878Z,95.00
2018-07-11T20:24:21.753Z,95.10
2018-07-11T20:26:50.336Z,95.20
2018-07-11T20:29:19.620Z,95.30
2018-07-11T20:31:48.220Z,95.70
2018-07-11T20:34:21.430Z,95.30
2018-07-11T20:36:50.668Z,95.30
2018-07-11T20:41:47.593Z,95.50
2018-07-11T20:44:16.395Z,95.60
2018-07-11T20:46:45.176Z,95.40
2018-07-11T20:49:18.967Z,95.60
2018-07-11T20:51:47.844Z,95.60
2018-07-11T20:54:16.537Z,95.70
2018-07-11T20:56:45.053Z,95.90
2018-07-11T21:01:27.210Z,96.00
2018-07-11T21:06:21.451Z,96.50
2018-07-11T21:12:28.690Z,96.70
2018-07-11T21:15:16.589Z,96.70
2018-07-11T21:18:58.938Z,96.70
2018-07-11T21:21:28.187Z,96.60
2018-07-11T21:23:56.806Z,96.60
2018-07-11T21:28:54.054Z,96.60
2018-07-11T21:31:23.160Z,96.90
2018-07-11T21:33:51.568Z,96.50
2018-07-11T21:36:20.844Z,97.10
2018-07-11T21:38:50.541Z,96.80
2018-07-11T21:41:19.319Z,96.70
2018-07-11T21:43:52.749Z,97.20
2018-07-11T21:46:21.492Z,97.60
2018-07-11T21:48:50.059Z,97.60
2018-07-11T21:51:19.134Z,97.50
2018-07-11T21:53:48.109Z,97.30
2018-07-11T21:56:16.996Z,97.20
2018-07-11T21:58:46.131Z,97.50
2018-07-11T22:01:16.093Z,97.40
2018-07-11T22:03:44.596Z,97.50
2018-07-11T22:06:13.157Z,98.40
2018-07-11T22:08:41.833Z,98.20
2018-07-11T22:11:10.448Z,97.80
2018-07-11T22:13:39.120Z,97.70
2018-07-11T22:16:26.091Z,98.00
2018-07-11T22:18:55.140Z,97.70
2018-07-11T22:21:22.721Z,97.70
2018-07-11T22:23:51.298Z,97.30
2018-07-11T22:26:18.745Z,97.50
2018-07-11T22:28:46.009Z,97.40
2018-07-11T22:31:13.313Z,97.80
2018-07-11T22:33:40.630Z,97.80
2018-07-11T22:36:08.082Z,97.40
2018-07-11T22:38:36.145Z,97.80
2018-07-11T22:41:03.481Z,97.40
2018-07-11T22:43:30.905Z,97.90
2018-07-11T22:45:58.172Z,97.60
2018-07-11T22:48:25.447Z,97.60
2018-07-11T22:50:52.776Z,97.10
2018-07-11T22:53:20.886Z,97.10
2018-07-11T22:55:48.259Z,97.60
2018-07-11T22:58:15.515Z,97.80
2018-07-11T23:00:42.849Z,97.30
2018-07-11T23:03:10.224Z,97.10
2018-07-11T23:05:37.525Z,96.90
2018-07-11T23:08:04.794Z,97.40
2018-07-11T23:10:32.696Z,96.80
2018-07-11T23:13:00.036Z,97.20
2018-07-11T23:15:27.392Z,97.30
2018-07-11T23:17:54.702Z,97.50
2018-07-11T23:20:22.092Z,97.20
2018-07-11T23:25:17.224Z,97.60
2018-07-11T23:27:44.586Z,97.30
2018-07-11T23:30:11.890Z,97.40
2018-07-11T23:32:39.202Z,97.50
2018-07-11T23:35:06.477Z,97.50
2018-07-11T23:37:33.773Z,96.90
2018-07-11T23:40:01.165Z,96.80
2018-07-11T23:42:29.066Z,96.90
2018-07-11T23:44:56.387Z,96.80
2018-07-11T23:47:23.662Z,96.80
2018-07-11T23:52:19.333Z,96.60
2018-07-11T23:54:46.689Z,96.40
2018-07-11T23:59:41.544Z,96.50
